createdAt,value
2019-06-27T00:00:27.585Z,17.64
2019-06-27T00:02:53.599Z,17.55
2019-06-27T00:05:19.761Z,17.67
2019-06-27T00:07:45.772Z,17.55
2019-06-27T00:10:12.350Z,17.50
2019-06-27T00:12:38.364Z,17.56
2019-06-27T00:15:04.763Z,17.39
2019-06-27T00:17:31.009Z,17.41
2019-06-27T00:19:57.276Z,17.51
2019-06-27T00:22:23.288Z,17.44
2019-06-27T00:24:49.272Z,17.44
2019-06-27T00:27:15.302Z,17.45
2019-06-27T00:29:41.577Z,17.43
2019-06-27T00:32:07.564Z,17.32
2019-06-27T00:34:33.576Z,17.25
2019-06-27T00:36:59.598Z,17.23
2019-06-27T00:39:25.593Z,17.22
2019-06-27T00:41:51.620Z,17.20
2019-06-27T00:44:17.604Z,17.19
2019-06-27T00:46:43.617Z,17.24
2019-06-27T00:49:09.608Z,17.23
2019-06-27T00:51:35.628Z,17.17
2019-06-27T00:54:01.660Z,17.01
2019-06-27T00:56:27.716Z,17.04
2019-06-27T00:58:53.766Z,16.94
2019-06-27T01:01:19.857Z,16.88
2019-06-27T01:03:45.937Z,16.84
2019-06-27T01:06:12.009Z,16.79
2019-06-27T01:08:37.997Z,16.76
2019-06-27T01:11:04.401Z,16.77
2019-06-27T01:13:30.468Z,16.87
2019-06-27T01:15:56.467Z,16.71
2019-06-27T01:18:22.836Z,16.67
2019-06-27T01:20:48.903Z,16.65
2019-06-27T01:23:15.134Z,16.59
2019-06-27T01:25:42.027Z,16.61
2019-06-27T01:28:08.083Z,16.65
2019-06-27T01:30:34.203Z,16.64
2019-06-27T01:33:00.337Z,16.45
2019-06-27T01:35:26.379Z,16.43
2019-06-27T01:37:52.515Z,16.52
2019-06-27T01:40:19.045Z,16.45
2019-06-27T01:42:45.047Z,16.43
2019-06-27T01:45:13.084Z,16.39
2019-06-27T01:47:39.143Z,16.35
2019-06-27T01:50:05.486Z,16.26
2019-06-27T01:52:31.592Z,16.21
2019-06-27T01:54:57.617Z,16.18
2019-06-27T01:57:23.652Z,16.21
2019-06-27T01:59:49.698Z,16.14
2019-06-27T02:02:15.848Z,16.06
2019-06-27T02:04:41.866Z,16.12
2019-06-27T02:07:07.940Z,16.03
2019-06-27T02:09:34.069Z,16.01
2019-06-27T02:12:00.180Z,16.03
2019-06-27T02:14:26.204Z,16.04
2019-06-27T02:16:52.192Z,16.08
2019-06-27T02:19:18.324Z,15.93
2019-06-27T02:21:44.340Z,16.02
2019-06-27T02:24:10.336Z,15.96
2019-06-27T02:26:36.435Z,15.99
2019-06-27T02:29:02.692Z,15.93
2019-06-27T02:31:28.736Z,15.98
2019-06-27T02:33:54.707Z,15.95
2019-06-27T02:36:21.484Z,15.96
2019-06-27T02:38:47.516Z,15.95
2019-06-27T02:41:13.526Z,15.78
2019-06-27T02:43:39.527Z,15.78
2019-06-27T02:51:32.921Z,15.71
2019-06-27T02:54:06.002Z,15.75
2019-06-27T03:10:29.270Z,15.83
2019-06-27T03:12:55.388Z,15.75
2019-06-27T03:15:21.465Z,15.70
2019-06-27T03:17:47.458Z,15.71
2019-06-27T03:20:13.656Z,15.81
2019-06-27T03:22:39.781Z,15.87
2019-06-27T03:25:06.067Z,15.82
2019-06-27T03:27:32.091Z,15.66
2019-06-27T03:29:58.238Z,15.69
2019-06-27T03:32:24.218Z,15.75
2019-06-27T03:34:50.241Z,15.74
2019-06-27T03:37:16.368Z,15.71
2019-06-27T03:39:42.346Z,15.70
2019-06-27T03:42:08.352Z,15.73
2019-06-27T03:44:34.321Z,15.93
2019-06-27T03:47:00.353Z,15.81
2019-06-27T03:49:26.325Z,15.70
2019-06-27T03:51:52.466Z,15.82
2019-06-27T03:54:18.454Z,15.80
2019-06-27T03:56:44.429Z,15.87
2019-06-27T03:59:12.964Z,15.84
2019-06-27T04:01:38.327Z,15.87
2019-06-27T04:04:04.357Z,15.86
2019-06-27T04:06:30.342Z,15.81
2019-06-27T04:08:56.468Z,15.76
2019-06-27T04:11:22.672Z,15.78
2019-06-27T04:13:48.689Z,15.82
2019-06-27T04:16:15.150Z,15.90
2019-06-27T04:18:41.274Z,15.98
2019-06-27T04:21:07.405Z,15.87
2019-06-27T04:23:33.448Z,15.93
2019-06-27T04:25:59.441Z,16.06
2019-06-27T04:28:25.443Z,16.16
2019-06-27T04:30:51.456Z,16.14
2019-06-27T04:33:17.733Z,16.24
2019-06-27T04:35:44.001Z,16.33
2019-06-27T04:38:10.033Z,16.36
2019-06-27T04:40:36.064Z,16.31
2019-06-27T04:43:05.298Z,16.39
2019-06-27T04:45:30.048Z,16.42
2019-06-27T04:47:56.089Z,16.52
2019-06-27T04:50:22.224Z,16.55
2019-06-27T04:52:48.329Z,16.56
2019-06-27T04:55:14.362Z,16.42
2019-06-27T04:57:40.365Z,16.42
2019-06-27T05:00:06.701Z,16.62
2019-06-27T05:02:32.814Z,16.72
2019-06-27T05:04:58.917Z,16.64
2019-06-27T05:07:24.935Z,16.41
2019-06-27T05:09:50.911Z,16.40
2019-06-27T05:12:17.022Z,16.34
2019-06-27T05:14:43.028Z,16.42
2019-06-27T05:17:09.064Z,16.36
2019-06-27T05:19:35.351Z,16.46
2019-06-27T05:22:01.395Z,16.52
2019-06-27T05:24:27.468Z,16.43
2019-06-27T05:26:53.464Z,16.40
2019-06-27T05:29:19.491Z,16.39
2019-06-27T05:31:45.461Z,16.45
2019-06-27T05:34:11.578Z,16.50
2019-06-27T05:36:37.552Z,16.66
2019-06-27T05:39:04.845Z,16.58
2019-06-27T05:41:30.845Z,16.62
2019-06-27T05:43:56.833Z,16.45
2019-06-27T05:46:22.921Z,16.43
2019-06-27T05:48:48.932Z,16.55
2019-06-27T05:51:14.899Z,16.52
2019-06-27T05:53:40.929Z,16.43
2019-06-27T05:56:06.952Z,16.42
2019-06-27T05:58:32.921Z,16.42
2019-06-27T06:00:58.948Z,16.45
2019-06-27T06:03:24.954Z,16.49
2019-06-27T06:05:51.017Z,16.45
2019-06-27T06:08:17.118Z,16.56
2019-06-27T06:10:43.098Z,16.64
2019-06-27T06:13:09.127Z,16.58
2019-06-27T06:15:35.234Z,16.73
2019-06-27T06:18:01.226Z,16.61
2019-06-27T06:20:27.288Z,16.57
2019-06-27T06:22:53.304Z,16.54
2019-06-27T06:25:19.292Z,16.78
2019-06-27T06:27:45.346Z,16.74
2019-06-27T06:30:12.069Z,16.84
2019-06-27T06:32:38.076Z,17.04
2019-06-27T06:35:05.584Z,17.14
2019-06-27T06:37:31.678Z,17.13
2019-06-27T06:39:57.695Z,17.06
2019-06-27T06:42:23.700Z,16.99
2019-06-27T06:44:49.728Z,17.06
2019-06-27T06:47:15.957Z,17.32
2019-06-27T06:49:41.945Z,17.39
2019-06-27T06:52:07.953Z,17.17
2019-06-27T06:54:33.972Z,17.01
2019-06-27T06:56:59.987Z,17.10
2019-06-27T06:59:25.980Z,17.22
2019-06-27T07:01:51.997Z,16.92
2019-06-27T07:04:18.168Z,16.84
2019-06-27T07:06:44.192Z,16.82
2019-06-27T07:09:10.215Z,17.00
2019-06-27T07:11:36.276Z,17.26
2019-06-27T07:14:02.476Z,17.15
2019-06-27T07:16:28.510Z,17.20
2019-06-27T07:18:54.551Z,17.23
2019-06-27T07:21:20.628Z,17.23
2019-06-27T07:23:46.670Z,17.09
2019-06-27T07:26:12.692Z,17.23
2019-06-27T07:28:38.844Z,17.36
2019-06-27T07:31:17.394Z,17.61
2019-06-27T07:33:32.731Z,17.63
2019-06-27T07:35:58.778Z,17.49
2019-06-27T07:38:25.113Z,17.46
2019-06-27T07:40:51.089Z,17.48
2019-06-27T07:43:17.115Z,17.76
2019-06-27T07:45:43.141Z,17.84
2019-06-27T07:48:09.249Z,17.49
2019-06-27T07:50:35.312Z,17.46
2019-06-27T07:53:01.525Z,17.58
2019-06-27T07:55:27.680Z,17.58
2019-06-27T07:57:53.720Z,17.35
2019-06-27T08:00:21.108Z,17.45
2019-06-27T08:02:47.116Z,17.59
2019-06-27T08:05:13.651Z,17.46
2019-06-27T08:07:39.692Z,17.44
2019-06-27T08:10:06.262Z,17.61
2019-06-27T08:12:32.252Z,17.67
2019-06-27T08:14:58.278Z,17.81
2019-06-27T08:17:24.278Z,18.08
2019-06-27T08:19:50.333Z,18.23
2019-06-27T08:22:16.320Z,18.03
2019-06-27T08:24:42.311Z,18.13
2019-06-27T08:27:08.352Z,18.15
2019-06-27T08:29:34.452Z,18.19
2019-06-27T08:32:00.504Z,18.29
2019-06-27T08:34:26.512Z,17.96
2019-06-27T08:36:52.556Z,18.36
2019-06-27T08:39:18.634Z,18.55
2019-06-27T08:41:44.648Z,18.25
2019-06-27T08:44:11.031Z,18.79
2019-06-27T08:46:37.000Z,18.78
2019-06-27T08:49:03.262Z,18.61
2019-06-27T08:51:29.387Z,18.72
2019-06-27T08:53:55.509Z,18.71
2019-06-27T08:56:21.552Z,18.71
2019-06-27T08:58:47.548Z,18.91
2019-06-27T09:01:13.569Z,18.94
2019-06-27T09:03:39.637Z,18.91
2019-06-27T09:06:05.694Z,18.99
2019-06-27T09:08:31.670Z,19.33
2019-06-27T09:10:57.690Z,19.26
2019-06-27T09:13:23.692Z,19.30
2019-06-27T09:15:49.713Z,19.12
2019-06-27T09:18:15.709Z,19.13
2019-06-27T09:20:41.752Z,19.14
2019-06-27T09:23:07.736Z,19.08
2019-06-27T09:25:33.768Z,19.29
2019-06-27T09:27:59.810Z,19.48
2019-06-27T09:30:26.037Z,19.11
2019-06-27T09:32:52.028Z,18.84
2019-06-27T09:35:18.065Z,18.99
2019-06-27T09:37:44.052Z,18.96
2019-06-27T09:40:10.209Z,18.88
2019-06-27T09:42:36.183Z,19.04
2019-06-27T09:45:05.692Z,19.42
2019-06-27T09:47:31.764Z,19.48
2019-06-27T09:49:57.796Z,19.45
2019-06-27T09:52:23.808Z,19.50
2019-06-27T09:54:49.829Z,19.46
2019-06-27T09:57:15.865Z,19.35
2019-06-27T09:59:41.957Z,19.53
2019-06-27T10:02:08.001Z,19.43
2019-06-27T10:04:34.313Z,19.33
2019-06-27T10:07:00.323Z,19.20
2019-06-27T10:09:26.328Z,19.30
2019-06-27T10:11:53.427Z,19.84
2019-06-27T10:14:19.654Z,20.07
2019-06-27T10:16:45.653Z,20.04
2019-06-27T10:19:11.694Z,20.49
2019-06-27T10:21:37.727Z,20.64
2019-06-27T10:24:03.856Z,20.70
2019-06-27T10:26:29.866Z,20.25
2019-06-27T10:28:55.871Z,20.50
2019-06-27T10:31:21.932Z,20.80
2019-06-27T10:33:47.971Z,20.81
2019-06-27T10:36:13.995Z,20.88
2019-06-27T10:38:40.035Z,21.16
2019-06-27T10:41:06.055Z,21.04
2019-06-27T10:43:32.042Z,21.15
2019-06-27T10:45:58.028Z,20.96
2019-06-27T10:48:24.119Z,21.22
2019-06-27T10:50:50.106Z,20.99
2019-06-27T10:53:16.311Z,21.07
2019-06-27T10:55:42.358Z,20.71
2019-06-27T10:58:08.357Z,20.58
2019-06-27T11:00:34.385Z,20.73
2019-06-27T11:03:14.375Z,20.92
2019-06-27T11:05:28.337Z,21.03
2019-06-27T11:07:54.419Z,20.95
2019-06-27T11:10:20.488Z,21.11
2019-06-27T11:12:46.528Z,20.73
2019-06-27T11:15:13.102Z,20.66
2019-06-27T11:17:39.329Z,20.56
2019-06-27T11:20:05.973Z,20.27
2019-06-27T11:22:31.996Z,20.21
2019-06-27T11:24:58.012Z,20.29
2019-06-27T11:27:27.305Z,20.48
2019-06-27T11:29:52.072Z,20.51
2019-06-27T11:32:18.087Z,20.41
2019-06-27T11:34:44.133Z,20.47
2019-06-27T11:37:10.169Z,20.70
2019-06-27T11:39:36.211Z,20.84
2019-06-27T11:42:02.254Z,20.62
2019-06-27T11:44:28.615Z,20.80
2019-06-27T11:46:54.618Z,20.83
2019-06-27T11:49:20.618Z,20.88
2019-06-27T11:51:46.672Z,21.08
2019-06-27T11:54:12.707Z,20.77
2019-06-27T11:56:38.778Z,20.76
2019-06-27T11:59:04.857Z,20.65
2019-06-27T12:01:30.833Z,20.62
2019-06-27T12:03:56.870Z,20.94
2019-06-27T12:06:22.893Z,21.20
2019-06-27T12:08:48.883Z,21.31
2019-06-27T12:11:14.911Z,21.51
2019-06-27T12:13:40.933Z,20.95
2019-06-27T12:16:06.912Z,20.87
2019-06-27T12:18:32.912Z,20.83
2019-06-27T12:20:58.897Z,20.74
2019-06-27T12:23:24.860Z,20.96
2019-06-27T12:25:50.893Z,21.06
2019-06-27T12:28:16.868Z,21.44
2019-06-27T12:30:42.897Z,21.18
2019-06-27T12:33:09.141Z,21.04
2019-06-27T12:35:35.185Z,21.25
2019-06-27T12:38:01.267Z,21.08
2019-06-27T12:40:27.297Z,21.57
2019-06-27T12:42:53.294Z,21.58
2019-06-27T12:45:19.867Z,21.18
2019-06-27T12:47:45.946Z,21.23
2019-06-27T12:50:14.676Z,21.00
2019-06-27T12:52:40.699Z,20.91
2019-06-27T12:55:07.034Z,21.08
2019-06-27T12:57:33.052Z,21.13
2019-06-27T12:59:59.403Z,22.02
2019-06-27T13:02:25.491Z,21.94
2019-06-27T13:04:51.499Z,22.16
2019-06-27T13:07:17.549Z,22.05
2019-06-27T13:09:43.542Z,22.13
2019-06-27T13:12:09.594Z,22.06
2019-06-27T13:14:35.633Z,22.09
2019-06-27T13:17:01.654Z,22.26
2019-06-27T13:19:27.740Z,22.35
2019-06-27T13:21:53.877Z,22.06
2019-06-27T13:24:20.022Z,21.89
2019-06-27T13:26:46.056Z,22.19
2019-06-27T13:29:12.035Z,21.94
2019-06-27T13:31:38.046Z,21.92
2019-06-27T13:34:04.048Z,21.54
2019-06-27T13:36:33.117Z,21.63
2019-06-27T13:38:57.973Z,22.12
2019-06-27T13:41:23.972Z,22.27
2019-06-27T13:43:50.072Z,22.02
2019-06-27T13:46:16.080Z,21.35
2019-06-27T13:48:42.110Z,21.36
2019-06-27T13:51:08.071Z,21.32
2019-06-27T13:53:34.096Z,21.52
2019-06-27T13:56:00.132Z,21.63
2019-06-27T13:58:26.142Z,21.39
2019-06-27T14:00:52.173Z,21.40
2019-06-27T14:03:18.209Z,21.39
2019-06-27T14:05:44.200Z,21.38
2019-06-27T14:08:10.295Z,21.17
2019-06-27T14:10:36.325Z,21.16
2019-06-27T14:13:02.423Z,21.38
2019-06-27T14:15:28.410Z,21.13
2019-06-27T14:17:54.518Z,21.58
2019-06-27T14:20:20.581Z,21.55
2019-06-27T14:22:46.608Z,21.18
2019-06-27T14:25:12.626Z,21.17
2019-06-27T14:27:38.652Z,21.35
2019-06-27T14:30:06.924Z,21.43
2019-06-27T14:32:33.200Z,21.32
2019-06-27T14:35:13.952Z,21.06
2019-06-27T14:37:27.124Z,21.03
2019-06-27T14:39:56.451Z,21.16
2019-06-27T14:42:21.066Z,21.07
2019-06-27T14:44:47.296Z,21.47
2019-06-27T14:47:13.614Z,21.38
2019-06-27T14:49:40.676Z,21.25
2019-06-27T14:52:06.776Z,21.46
2019-06-27T14:54:34.640Z,21.57
2019-06-27T14:57:01.324Z,21.52
2019-06-27T14:59:27.334Z,21.28
2019-06-27T15:01:53.363Z,21.06
2019-06-27T15:04:19.404Z,21.18
2019-06-27T15:06:45.710Z,20.76
2019-06-27T15:09:11.953Z,20.69
2019-06-27T15:11:37.955Z,21.15
2019-06-27T15:14:04.054Z,21.02
2019-06-27T15:16:31.026Z,20.90
2019-06-27T15:18:57.152Z,20.80
2019-06-27T15:21:23.255Z,20.94
2019-06-27T15:23:49.253Z,21.34
2019-06-27T15:26:15.334Z,21.31
2019-06-27T15:28:41.435Z,21.27
2019-06-27T15:31:07.440Z,21.00
2019-06-27T15:33:33.785Z,21.14
2019-06-27T15:35:59.835Z,21.09
2019-06-27T15:38:27.819Z,21.05
2019-06-27T15:40:55.413Z,20.88
2019-06-27T15:43:21.825Z,20.83
2019-06-27T15:45:47.933Z,20.62
2019-06-27T15:48:14.144Z,20.65
2019-06-27T15:50:40.235Z,20.80
2019-06-27T15:53:06.449Z,20.76
2019-06-27T15:55:32.551Z,20.54
2019-06-27T15:57:58.643Z,20.49
2019-06-27T16:00:24.734Z,20.26
2019-06-27T16:02:50.852Z,20.12
2019-06-27T16:05:16.878Z,20.25
2019-06-27T16:07:43.054Z,19.98
2019-06-27T16:10:10.138Z,19.97
2019-06-27T16:12:38.085Z,19.95
2019-06-27T16:15:07.861Z,19.96
2019-06-27T16:17:33.979Z,19.71
2019-06-27T16:20:00.089Z,19.70
2019-06-27T16:22:26.103Z,19.63
2019-06-27T16:24:52.132Z,19.61
2019-06-27T16:27:18.224Z,19.79
2019-06-27T16:29:44.650Z,19.72
2019-06-27T16:32:10.791Z,19.72
2019-06-27T16:34:37.874Z,19.75
2019-06-27T16:37:04.158Z,19.81
2019-06-27T16:39:30.348Z,19.60
2019-06-27T16:41:56.503Z,19.38
2019-06-27T16:44:22.720Z,19.61
2019-06-27T16:46:49.410Z,19.47
2019-06-27T16:49:16.079Z,19.76
2019-06-27T16:51:42.081Z,19.74
2019-06-27T16:54:08.068Z,19.46
2019-06-27T16:56:34.136Z,19.61
2019-06-27T16:59:00.337Z,19.38
2019-06-27T17:01:27.332Z,19.38
2019-06-27T17:03:53.437Z,19.30
2019-06-27T17:06:19.560Z,19.29
2019-06-27T17:08:45.592Z,19.37
2019-06-27T17:11:11.737Z,19.28
2019-06-27T17:13:37.885Z,19.16
2019-06-27T17:16:04.204Z,19.26
2019-06-27T17:18:30.659Z,19.32
2019-06-27T17:20:58.146Z,19.27
2019-06-27T17:23:24.360Z,19.28
2019-06-27T17:25:50.524Z,19.33
2019-06-27T17:28:16.878Z,19.36
2019-06-27T17:30:43.652Z,19.31
2019-06-27T17:33:10.929Z,19.09
2019-06-27T17:35:37.224Z,19.00
2019-06-27T17:38:13.917Z,19.08
2019-06-27T17:40:43.200Z,19.17
2019-06-27T17:43:09.331Z,19.16
2019-06-27T17:45:35.365Z,19.24
2019-06-27T17:48:01.552Z,19.30
2019-06-27T17:50:27.594Z,19.29
2019-06-27T17:52:53.672Z,19.23
2019-06-27T17:55:20.035Z,19.12
2019-06-27T17:57:47.342Z,19.18
2019-06-27T18:00:14.098Z,19.23
2019-06-27T18:02:40.154Z,19.27
2019-06-27T18:05:07.296Z,19.21
2019-06-27T18:07:33.493Z,19.04
2019-06-27T18:10:00.315Z,19.01
2019-06-27T18:12:27.528Z,19.12
2019-06-27T18:14:53.597Z,19.09
2019-06-27T18:17:32.423Z,19.08
2019-06-27T18:19:47.756Z,18.99
2019-06-27T18:22:13.844Z,19.04
2019-06-27T18:24:41.756Z,18.97
2019-06-27T18:27:08.126Z,18.96
2019-06-27T18:29:34.248Z,19.02
2019-06-27T18:32:00.420Z,19.04
2019-06-27T18:34:26.550Z,19.01
2019-06-27T18:36:52.652Z,18.99
2019-06-27T18:39:18.692Z,19.01
2019-06-27T18:41:44.775Z,19.00
2019-06-27T18:44:10.790Z,18.92
2019-06-27T18:46:36.904Z,18.83
2019-06-27T18:49:02.914Z,18.93
2019-06-27T18:51:28.955Z,18.86
2019-06-27T18:53:54.960Z,18.84
2019-06-27T18:56:20.968Z,18.81
2019-06-27T18:58:47.066Z,18.84
2019-06-27T19:01:13.157Z,18.85
2019-06-27T19:03:39.237Z,18.96
2019-06-27T19:06:05.245Z,18.85
2019-06-27T19:08:31.396Z,18.81
2019-06-27T19:10:59.349Z,18.76
2019-06-27T19:13:25.355Z,18.70
2019-06-27T19:15:51.539Z,18.63
2019-06-27T19:18:35.776Z,18.69
2019-06-27T19:21:03.710Z,18.59
2019-06-27T19:23:31.641Z,18.55
2019-06-27T19:25:58.460Z,18.54
2019-06-27T19:28:24.489Z,18.56
2019-06-27T19:30:50.515Z,18.39
2019-06-27T19:33:17.260Z,18.40
2019-06-27T19:35:43.283Z,18.38
2019-06-27T19:38:12.972Z,18.34
2019-06-27T19:40:38.999Z,18.22
2019-06-27T19:43:05.061Z,18.25
2019-06-27T19:45:31.069Z,18.25
2019-06-27T19:47:57.081Z,18.21
2019-06-27T19:50:23.148Z,18.22
2019-06-27T19:52:49.297Z,18.22
2019-06-27T19:55:15.534Z,18.22
2019-06-27T19:57:41.511Z,18.50
2019-06-27T20:00:08.008Z,18.27
2019-06-27T20:02:39.123Z,18.14
2019-06-27T20:05:05.468Z,18.07
2019-06-27T20:08:18.976Z,18.06
2019-06-27T20:10:37.360Z,18.23
2019-06-27T20:13:03.599Z,18.17
2019-06-27T20:15:29.620Z,18.11
2019-06-27T20:17:55.865Z,18.09
2019-06-27T20:20:21.897Z,18.04
2019-06-27T20:22:48.147Z,17.99
2019-06-27T20:25:14.156Z,18.03
2019-06-27T20:27:40.180Z,17.90
2019-06-27T20:30:07.008Z,18.06
2019-06-27T20:32:33.037Z,17.94
2019-06-27T20:34:59.201Z,17.85
2019-06-27T20:37:27.103Z,17.76
2019-06-27T20:39:53.294Z,17.69
2019-06-27T20:42:19.387Z,17.73
2019-06-27T20:44:45.371Z,17.73
2019-06-27T20:47:11.427Z,17.78
2019-06-27T20:49:37.462Z,17.77
2019-06-27T20:52:03.483Z,17.81
2019-06-27T20:54:29.587Z,17.81
2019-06-27T20:56:55.651Z,17.74
2019-06-27T20:59:21.650Z,17.73
2019-06-27T21:01:47.959Z,17.81
2019-06-27T21:04:13.987Z,17.80
2019-06-27T21:06:40.104Z,17.79
2019-06-27T21:09:06.127Z,17.83
2019-06-27T21:11:32.276Z,17.79
2019-06-27T21:13:58.274Z,17.83
2019-06-27T21:16:24.276Z,17.80
2019-06-27T21:18:51.178Z,17.72
2019-06-27T21:21:17.605Z,17.68
2019-06-27T21:23:43.644Z,17.75
2019-06-27T21:26:09.712Z,17.69
2019-06-27T21:28:35.781Z,17.75
2019-06-27T21:31:01.900Z,17.63
2019-06-27T21:33:28.062Z,17.67
2019-06-27T21:35:54.027Z,17.62
2019-06-27T21:38:20.024Z,18.17
2019-06-27T21:40:46.054Z,17.93
2019-06-27T21:43:12.036Z,17.65
2019-06-27T21:45:38.120Z,17.61
2019-06-27T21:48:04.328Z,17.51
2019-06-27T21:50:30.337Z,17.51
2019-06-27T21:52:56.394Z,17.45
2019-06-27T21:55:22.552Z,17.46
2019-06-27T21:57:48.658Z,17.43
2019-06-27T22:00:14.975Z,17.28
2019-06-27T22:02:41.008Z,17.43
2019-06-27T22:05:07.170Z,17.33
2019-06-27T22:07:33.221Z,17.67
2019-06-27T22:09:59.244Z,17.73
2019-06-27T22:12:25.278Z,17.78
2019-06-27T22:14:51.267Z,17.64
2019-06-27T22:17:17.449Z,17.77
2019-06-27T22:19:43.474Z,17.77
2019-06-27T22:22:09.468Z,17.83
2019-06-27T22:24:35.527Z,17.82
2019-06-27T22:27:01.560Z,17.76
2019-06-27T22:29:27.920Z,17.76
2019-06-27T22:31:53.939Z,17.75
2019-06-27T22:34:20.208Z,17.58
2019-06-27T22:36:46.221Z,17.37
2019-06-27T22:39:40.110Z,17.54
2019-06-27T22:42:16.612Z,17.31
2019-06-27T22:45:01.030Z,17.34
2019-06-27T22:47:45.153Z,17.25
2019-06-27T22:50:19.470Z,17.04
2019-06-27T22:52:50.185Z,17.02
2019-06-27T22:55:23.665Z,17.02
2019-06-27T22:57:49.760Z,16.96
2019-06-27T23:00:16.040Z,16.85
2019-06-27T23:02:42.011Z,16.89
2019-06-27T23:05:08.402Z,16.60
2019-06-27T23:07:34.403Z,16.65
2019-06-27T23:10:00.379Z,16.66
2019-06-27T23:12:26.627Z,16.62
2019-06-27T23:14:52.640Z,16.57
2019-06-27T23:17:18.705Z,16.51
2019-06-27T23:19:44.770Z,16.58
2019-06-27T23:22:10.777Z,16.55
2019-06-27T23:24:36.899Z,16.55
2019-06-27T23:27:02.882Z,16.52
2019-06-27T23:29:28.885Z,16.52
2019-06-27T23:31:54.948Z,16.46
2019-06-27T23:34:20.960Z,16.44
2019-06-27T23:36:46.955Z,16.45
2019-06-27T23:39:13.383Z,16.51
2019-06-27T23:41:39.668Z,16.49
2019-06-27T23:44:05.908Z,16.55
2019-06-27T23:46:39.590Z,16.59
2019-06-27T23:49:05.677Z,16.65
2019-06-27T23:51:31.688Z,16.72
2019-06-27T23:53:57.745Z,16.70
2019-06-27T23:56:23.735Z,16.74
2019-06-27T23:58:49.780Z,16.78
